Time,TemperatureF,DewpointF,PressureIn,WindDirection,WindDirectionDegrees,WindSpeedMPH,WindSpeedGustMPH,Humidity,HourlyPrecipIn,Conditions,Clouds,dailyrainin,SoftwareType,DateUTC
2013-02-25 10:44:00,48.2,41.3,30.19,WSW,243,8.0,8.0,77,0.00,,,0.35,Wunderground v.1.15,2013-02-25 18:44:00,
2013-02-25 10:50:00,48.6,42.4,30.20,SW,234,7.0,16.0,79,0.00,,,0.35,Wunderground v.1.15,2013-02-25 18:50:00,
2013-02-25 10:56:00,47.0,40.5,30.21,WNW,299,9.0,14.0,78,0.00,,,0.36,Wunderground v.1.15,2013-02-25 18:56:00,
2013-02-25 11:01:00,45.4,40.5,30.20,NW,309,8.0,8.0,83,0.00,,,0.36,Wunderground v.1.15,2013-02-25 19:01:00,
2013-02-25 11:07:00,44.4,39.9,30.21,West,260,4.0,8.0,84,0.04,,,0.37,Wunderground v.1.15,2013-02-25 19:07:00,
2013-02-25 11:12:00,44.0,39.8,30.21,WNW,296,4.0,4.0,85,0.04,,,0.37,Wunderground v.1.15,2013-02-25 19:12:00,
2013-02-25 11:17:00,43.9,40.0,30.21,WNW,303,2.0,4.0,86,0.04,,,0.37,Wunderground v.1.15,2013-02-25 19:17:00,
2013-02-25 11:22:00,44.2,40.9,30.20,WSW,240,2.0,4.0,88,0.04,,,0.37,Wunderground v.1.15,2013-02-25 19:22:00,
2013-02-25 11:28:00,45.4,42.1,30.21,WSW,248,3.0,7.0,88,0.00,,,0.37,Wunderground v.1.15,2013-02-25 19:28:00,
2013-02-25 11:33:00,46.6,42.3,30.21,SW,229,4.0,17.0,85,0.00,,,0.37,Wunderground v.1.15,2013-02-25 19:33:00,
2013-02-25 11:39:00,47.7,41.2,30.22,WSW,244,6.0,18.0,78,0.00,,,0.37,Wunderground v.1.15,2013-02-25 19:39:00,
2013-02-25 11:44:00,47.4,40.6,30.22,WSW,247,7.0,17.0,77,0.00,,,0.37,Wunderground v.1.15,2013-02-25 19:44:00,
2013-02-25 11:49:00,46.9,40.4,30.22,West,271,6.0,17.0,78,0.00,,,0.37,Wunderground v.1.15,2013-02-25 19:49:00,
2013-02-25 11:55:00,46.7,40.2,30.22,SW,229,5.0,17.0,78,0.00,,,0.37,Wunderground v.1.15,2013-02-25 19:55:00,
2013-02-25 12:00:00,46.8,40.3,30.22,West,269,5.0,5.0,78,0.00,,,0.37,Wunderground v.1.15,2013-02-25 20:00:00,
2013-02-25 12:05:00,47.0,40.5,30.22,SSW,207,5.0,17.0,78,0.00,,,0.37,Wunderground v.1.15,2013-02-25 20:05:00,
2013-02-25 12:11:00,47.4,40.9,30.23,NW,307,5.0,5.0,78,0.00,,,0.37,Wunderground v.1.15,2013-02-25 20:11:00,
2013-02-25 12:17:00,47.7,40.2,30.23,West,259,6.0,9.0,75,0.00,,,0.37,Wunderground v.1.15,2013-02-25 20:17:00,
2013-02-25 12:22:00,47.8,39.9,30.23,West,260,6.0,9.0,74,0.00,,,0.37,Wunderground v.1.15,2013-02-25 20:22:00,
2013-02-25 12:27:00,47.9,41.7,30.23,SW,234,6.0,11.0,79,0.00,,,0.37,Wunderground v.1.15,2013-02-25 20:27:00,
2013-02-25 12:33:00,47.6,41.4,30.23,West,269,7.0,12.0,79,0.00,,,0.37,Wunderground v.1.15,2013-02-25 20:33:00,
2013-02-25 12:38:00,47.5,41.3,30.23,West,263,5.0,12.0,79,0.00,,,0.37,Wunderground v.1.15,2013-02-25 20:38:00,
2013-02-25 12:43:00,47.4,40.6,30.23,SW,229,5.0,10.0,77,0.00,,,0.37,Wunderground v.1.15,2013-02-25 20:43:00,
2013-02-25 12:48:00,47.7,40.5,30.23,WNW,300,5.0,10.0,76,0.00,,,0.37,Wunderground v.1.15,2013-02-25 20:48:00,
2013-02-25 12:54:00,48.0,40.5,30.23,WSW,252,4.0,8.0,75,0.00,,,0.37,Wunderground v.1.15,2013-02-25 20:54:00,
2013-02-25 12:59:00,48.3,40.7,30.23,WSW,253,4.0,8.0,75,0.00,,,0.37,Wunderground v.1.15,2013-02-25 20:59:00,
2013-02-25 13:05:00,48.7,39.7,30.23,WSW,247,5.0,23.0,71,0.00,,,0.37,Wunderground v.1.15,2013-02-25 21:05:00,
2013-02-25 13:10:00,49.2,39.8,30.23,SSW,200,5.0,5.0,70,0.00,,,0.37,Wunderground v.1.15,2013-02-25 21:10:00,
2013-02-25 13:15:00,49.9,39.8,30.23,West,265,6.0,23.0,68,0.00,,,0.37,Wunderground v.1.15,2013-02-25 21:15:00,
2013-02-25 13:21:00,50.5,39.9,30.23,WSW,250,6.0,8.0,67,0.00,,,0.37,Wunderground v.1.15,2013-02-25 21:21:00,
2013-02-25 13:26:00,50.9,39.9,30.24,WSW,248,7.0,23.0,66,0.00,,,0.37,Wunderground v.1.15,2013-02-25 21:26:00,
2013-02-25 13:31:00,50.1,38.8,30.25,WNW,288,7.0,23.0,65,0.00,,,0.37,Wunderground v.1.15,2013-02-25 21:31:00,
2013-02-25 13:37:00,47.9,38.6,30.25,West,267,7.0,23.0,70,0.00,,,0.37,Wunderground v.1.15,2013-02-25 21:37:00,
2013-02-25 13:42:00,46.9,39.0,30.24,WNW,290,5.0,23.0,74,0.00,,,0.37,Wunderground v.1.15,2013-02-25 21:42:00,
2013-02-25 13:47:00,46.6,37.3,30.24,West,262,5.0,23.0,70,0.00,,,0.37,Wunderground v.1.15,2013-02-25 21:47:00,
2013-02-25 13:53:00,46.8,38.6,30.24,SW,236,4.0,23.0,73,0.00,,,0.37,Wunderground v.1.15,2013-02-25 21:53:00,
2013-02-25 13:58:00,47.3,38.4,30.24,West,265,4.0,23.0,71,0.00,,,0.37,Wunderground v.1.15,2013-02-25 21:58:00,
2013-02-25 14:03:00,47.9,38.6,30.24,SW,219,4.0,23.0,70,0.00,,,0.37,Wunderground v.1.15,2013-02-25 22:03:00,
2013-02-25 14:09:00,48.1,38.4,30.24,West,272,5.0,23.0,69,0.00,,,0.37,Wunderground v.1.15,2013-02-25 22:09:00,
2013-02-25 14:14:00,48.3,39.0,30.24,SSW,198,6.0,23.0,70,0.00,,,0.37,Wunderground v.1.15,2013-02-25 22:14:00,
2013-02-25 14:19:00,48.7,39.4,30.24,WNW,296,5.0,23.0,70,0.00,,,0.37,Wunderground v.1.15,2013-02-25 22:19:00,
2013-02-25 14:25:00,49.1,39.0,30.24,WSW,240,5.0,23.0,68,0.00,,,0.37,Wunderground v.1.15,2013-02-25 22:25:00,
2013-02-25 14:30:00,48.6,38.1,30.24,WSW,258,6.0,6.0,67,0.00,,,0.37,Wunderground v.1.15,2013-02-25 22:30:00,
2013-02-25 14:35:00,47.6,37.9,30.25,WSW,244,7.0,23.0,69,0.00,,,0.37,Wunderground v.1.15,2013-02-25 22:35:00,
2013-02-25 14:41:00,46.3,39.1,30.26,WSW,237,6.0,23.0,76,0.00,,,0.37,Wunderground v.1.15,2013-02-25 22:41:00,
2013-02-25 14:46:00,45.1,39.3,30.27,WSW,243,6.0,23.0,80,0.00,,,0.37,Wunderground v.1.15,2013-02-25 22:46:00,
2013-02-25 14:51:00,44.0,38.5,30.26,West,262,8.0,23.0,81,0.13,,,0.39,Wunderground v.1.15,2013-02-25 22:51:00,
2013-02-25 14:57:00,43.2,38.7,30.26,WSW,254,6.0,23.0,84,0.10,,,0.39,Wunderground v.1.15,2013-02-25 22:57:00,
2013-02-25 15:02:00,42.9,38.7,30.26,West,271,3.0,23.0,85,0.05,,,0.39,Wunderground v.1.15,2013-02-25 23:02:00,
2013-02-25 15:08:00,42.7,38.5,30.26,WSW,248,2.0,23.0,85,0.04,,,0.39,Wunderground v.1.15,2013-02-25 23:08:00,
2013-02-25 15:13:00,42.6,39.0,30.26,WSW,248,3.0,23.0,87,0.00,,,0.39,Wunderground v.1.15,2013-02-25 23:13:00,
2013-02-25 15:18:00,42.9,39.6,30.26,West,264,3.0,23.0,88,0.00,,,0.39,Wunderground v.1.15,2013-02-25 23:18:00,
2013-02-25 15:24:00,43.2,39.6,30.26,West,275,4.0,23.0,87,0.00,,,0.39,Wunderground v.1.15,2013-02-25 23:24:00,
2013-02-25 15:29:00,43.5,39.3,30.25,SW,225,4.0,23.0,85,0.00,,,0.39,Wunderground v.1.15,2013-02-25 23:29:00,
2013-02-25 15:34:00,43.8,39.3,30.26,West,269,5.0,23.0,84,0.00,,,0.39,Wunderground v.1.15,2013-02-25 23:34:00,
2013-02-25 15:40:00,44.1,39.3,30.26,WSW,246,6.0,6.0,83,0.00,,,0.39,Wunderground v.1.15,2013-02-25 23:40:00,
2013-02-25 15:45:00,44.1,39.3,30.27,West,271,5.0,23.0,83,0.00,,,0.39,Wunderground v.1.15,2013-02-25 23:45:00,
2013-02-25 15:51:00,43.9,39.4,30.28,SW,232,3.0,23.0,84,0.55,,,0.41,Wunderground v.1.15,2013-02-25 23:51:00,
2013-02-25 15:56:00,43.5,39.3,30.28,SW,219,3.0,23.0,85,0.11,,,0.41,Wunderground v.1.15,2013-02-25 23:56:00,
2013-02-25 16:02:00,43.1,39.5,30.27,WSW,245,4.0,23.0,87,0.05,,,0.41,Wunderground v.1.15,2013-02-26 00:02:00,
2013-02-25 16:07:00,43.0,39.1,30.27,SW,233,5.0,23.0,86,0.04,,,0.41,Wunderground v.1.15,2013-02-26 00:07:00,
2013-02-25 16:12:00,42.7,37.9,30.27,WSW,254,7.0,23.0,83,0.00,,,0.42,Wunderground v.1.15,2013-02-26 00:12:00,
2013-02-25 16:17:00,42.6,38.1,30.27,WSW,257,6.0,23.0,84,0.00,,,0.42,Wunderground v.1.15,2013-02-26 00:17:00,
2013-02-25 16:23:00,42.5,37.7,30.27,West,263,4.0,23.0,83,0.00,,,0.42,Wunderground v.1.15,2013-02-26 00:23:00,
2013-02-25 16:28:00,42.3,37.5,30.27,West,265,4.0,23.0,83,0.00,,,0.42,Wunderground v.1.15,2013-02-26 00:28:00,
2013-02-25 16:33:00,42.2,37.7,30.28,WSW,252,3.0,23.0,84,0.00,,,0.42,Wunderground v.1.15,2013-02-26 00:33:00,
2013-02-25 16:39:00,42.1,37.9,30.27,WSW,244,4.0,23.0,85,0.00,,,0.42,Wunderground v.1.15,2013-02-26 00:39:00,
2013-02-25 16:44:00,42.0,37.5,30.27,WSW,252,6.0,23.0,84,0.00,,,0.42,Wunderground v.1.15,2013-02-26 00:44:00,
2013-02-25 16:49:00,41.8,37.0,30.27,SW,227,6.0,23.0,83,0.00,,,0.42,Wunderground v.1.15,2013-02-26 00:49:00,
2013-02-25 16:55:00,41.6,36.5,30.27,WSW,253,3.0,23.0,82,0.00,,,0.42,Wunderground v.1.15,2013-02-26 00:55:00,
2013-02-25 17:00:00,41.5,36.7,30.27,WSW,238,2.0,2.0,83,0.00,,,0.42,Wunderground v.1.15,2013-02-26 01:00:00,
2013-02-25 17:05:00,41.4,36.6,30.28,West,272,3.0,23.0,83,0.00,,,0.42,Wunderground v.1.15,2013-02-26 01:05:00,
2013-02-25 17:11:00,41.3,36.5,30.28,SW,221,2.0,4.0,83,0.00,,,0.42,Wunderground v.1.15,2013-02-26 01:11:00,
2013-02-25 17:16:00,41.3,36.8,30.29,WSW,239,1.0,23.0,84,0.00,,,0.42,Wunderground v.1.15,2013-02-26 01:16:00,
2013-02-25 17:21:00,41.3,36.8,30.28,WSW,249,1.0,23.0,84,0.00,,,0.42,Wunderground v.1.15,2013-02-26 01:21:00,
2013-02-25 17:27:00,41.3,37.1,30.29,WSW,249,1.0,23.0,85,0.00,,,0.42,Wunderground v.1.15,2013-02-26 01:27:00,
2013-02-25 17:32:00,41.4,37.2,30.29,WSW,249,0.0,23.0,85,0.00,,,0.42,Wunderground v.1.15,2013-02-26 01:32:00,
2013-02-25 17:37:00,41.4,36.9,30.29,WSW,249,0.0,23.0,84,0.00,,,0.42,Wunderground v.1.15,2013-02-26 01:37:00,
2013-02-25 17:43:00,41.5,37.6,30.30,WNW,294,1.0,23.0,86,0.00,,,0.42,Wunderground v.1.15,2013-02-26 01:43:00,
2013-02-25 17:48:00,41.6,37.7,30.30,WNW,300,2.0,23.0,86,0.00,,,0.42,Wunderground v.1.15,2013-02-26 01:48:00,
2013-02-25 17:54:00,41.5,37.6,30.30,WNW,300,1.0,23.0,86,0.00,,,0.42,Wunderground v.1.15,2013-02-26 01:54:00,
2013-02-25 17:59:00,41.3,37.1,30.30,West,264,1.0,23.0,85,0.00,,,0.42,Wunderground v.1.15,2013-02-26 01:59:00,
2013-02-25 18:04:00,41.1,36.9,30.30,SW,224,1.0,23.0,85,0.00,,,0.42,Wunderground v.1.15,2013-02-26 02:04:00,
2013-02-25 18:10:00,40.8,36.9,30.30,WSW,253,1.0,2.0,86,0.00,,,0.42,Wunderground v.1.15,2013-02-26 02:10:00,
2013-02-25 18:16:00,40.5,36.6,30.30,SW,225,3.0,4.0,86,0.00,,,0.42,Wunderground v.1.15,2013-02-26 02:16:00,
2013-02-25 18:21:00,40.2,36.3,30.30,SW,225,3.0,4.0,86,0.00,,,0.42,Wunderground v.1.15,2013-02-26 02:21:00,
2013-02-25 18:27:00,39.8,36.0,30.30,WSW,257,2.0,6.0,86,0.00,,,0.42,Wunderground v.1.15,2013-02-26 02:27:00,
2013-02-25 18:32:00,39.6,35.8,30.31,SSW,213,2.0,3.0,86,0.00,,,0.42,Wunderground v.1.15,2013-02-26 02:32:00,
2013-02-25 18:38:00,39.3,35.5,30.31,West,266,2.0,6.0,86,0.00,,,0.42,Wunderground v.1.15,2013-02-26 02:38:00,
2013-02-25 18:43:00,39.2,35.4,30.31,West,265,1.0,4.0,86,0.00,,,0.42,Wunderground v.1.15,2013-02-26 02:43:00,
2013-02-25 18:49:00,39.1,35.3,30.31,SW,233,1.0,4.0,86,0.00,,,0.42,Wunderground v.1.15,2013-02-26 02:49:00,
2013-02-25 18:54:00,39.0,35.2,30.31,SE,142,1.0,2.0,86,0.00,,,0.42,Wunderground v.1.15,2013-02-26 02:54:00,
2013-02-25 18:59:00,38.9,35.1,30.32,SE,132,1.0,2.0,86,0.00,,,0.42,Wunderground v.1.15,2013-02-26 02:59:00,
2013-02-25 19:05:00,38.5,35.0,30.32,ESE,105,1.0,6.0,87,0.00,,,0.42,Wunderground v.1.15,2013-02-26 03:05:00,
2013-02-25 19:11:00,38.3,35.1,30.32,ESE,105,2.0,6.0,88,0.00,,,0.42,Wunderground v.1.15,2013-02-26 03:11:00,
2013-02-25 19:16:00,38.2,35.2,30.32,ESE,115,2.0,6.0,89,0.00,,,0.42,Wunderground v.1.15,2013-02-26 03:16:00,
2013-02-25 19:21:00,38.2,35.2,30.32,ESE,115,1.0,6.0,89,0.00,,,0.42,Wunderground v.1.15,2013-02-26 03:21:00,
2013-02-25 19:26:00,38.2,35.2,30.32,ESE,115,0.0,6.0,89,0.00,,,0.42,Wunderground v.1.15,2013-02-26 03:26:00,
2013-02-25 19:32:00,38.3,35.6,30.33,NE,56,1.0,6.0,90,0.00,,,0.42,Wunderground v.1.15,2013-02-26 03:32:00,
2013-02-25 19:37:00,38.4,35.7,30.33,NE,56,1.0,6.0,90,0.00,,,0.42,Wunderground v.1.15,2013-02-26 03:37:00,
2013-02-25 19:43:00,38.6,35.6,30.33,NE,56,0.0,6.0,89,0.00,,,0.42,Wunderground v.1.15,2013-02-26 03:43:00,
2013-02-25 19:48:00,38.6,35.6,30.33,NE,56,0.0,6.0,89,0.00,,,0.42,Wunderground v.1.15,2013-02-26 03:48:00,
2013-02-25 19:53:00,38.5,35.5,30.33,NE,56,0.0,6.0,89,0.00,,,0.42,Wunderground v.1.15,2013-02-26 03:53:00,
2013-02-25 19:59:00,38.3,35.6,30.33,East,97,1.0,6.0,90,0.00,,,0.42,Wunderground v.1.15,2013-02-26 03:59:00,
2013-02-25 20:04:00,38.2,35.5,30.33,ESE,110,1.0,6.0,90,0.00,,,0.42,Wunderground v.1.15,2013-02-26 04:04:00,
2013-02-25 20:10:00,37.9,35.2,30.33,ESE,110,1.0,1.0,90,0.00,,,0.42,Wunderground v.1.15,2013-02-26 04:10:00,
2013-02-25 20:15:00,37.7,35.0,30.34,ESE,110,0.0,6.0,90,0.00,,,0.42,Wunderground v.1.15,2013-02-26 04:15:00,
2013-02-25 20:21:00,37.7,35.3,30.33,East,98,1.0,6.0,91,0.00,,,0.42,Wunderground v.1.15,2013-02-26 04:21:00,
2013-02-25 20:26:00,37.5,35.1,30.34,East,96,1.0,6.0,91,0.00,,,0.42,Wunderground v.1.15,2013-02-26 04:26:00,
2013-02-25 20:32:00,37.4,35.0,30.34,East,96,1.0,6.0,91,0.00,,,0.42,Wunderground v.1.15,2013-02-26 04:32:00,
2013-02-25 20:37:00,37.4,35.0,30.34,East,96,0.0,6.0,91,0.00,,,0.42,Wunderground v.1.15,2013-02-26 04:37:00,
2013-02-25 20:42:00,37.4,35.0,30.34,East,96,0.0,6.0,91,0.00,,,0.42,Wunderground v.1.15,2013-02-26 04:42:00,
2013-02-25 20:48:00,37.5,35.4,30.34,East,96,0.0,6.0,92,0.00,,,0.42,Wunderground v.1.15,2013-02-26 04:48:00,
2013-02-25 20:53:00,37.5,35.4,30.35,East,96,0.0,6.0,92,0.00,,,0.42,Wunderground v.1.15,2013-02-26 04:53:00,
2013-02-25 20:59:00,37.5,35.4,30.35,East,96,0.0,6.0,92,0.00,,,0.42,Wunderground v.1.15,2013-02-26 04:59:00,
2013-02-25 21:00:00,37.5,35.4,30.35,East,96,0.0,6.0,92,0.00,,,0.42,Wunderground v.1.15,2013-02-26 05:00:00,
2013-02-25 21:01:00,37.5,35.4,30.35,East,96,0.0,6.0,92,0.00,,,0.42,Wunderground v.1.15,2013-02-26 05:01:00,
2013-02-25 21:03:00,37.5,35.4,30.35,East,96,0.0,6.0,92,0.00,,,0.42,Wunderground v.1.15,2013-02-26 05:03:00,
2013-02-25 21:06:00,37.6,35.5,30.35,East,96,0.0,6.0,92,0.00,,,0.42,Wunderground v.1.15,2013-02-26 05:06:00,
2013-02-25 21:12:00,37.8,35.7,30.35,East,96,0.0,6.0,92,0.00,,,0.42,Wunderground v.1.15,2013-02-26 05:12:00,
2013-02-25 21:17:00,37.9,35.8,30.35,East,96,0.0,6.0,92,0.00,,,0.42,Wunderground v.1.15,2013-02-26 05:17:00,
2013-02-25 21:23:00,37.9,35.8,30.35,East,96,0.0,6.0,92,0.00,,,0.42,Wunderground v.1.15,2013-02-26 05:23:00,
2013-02-25 21:28:00,37.9,35.8,30.35,East,96,0.0,6.0,92,0.00,,,0.42,Wunderground v.1.15,2013-02-26 05:28:00,
2013-02-25 21:33:00,37.9,35.8,30.35,East,96,0.0,6.0,92,0.00,,,0.42,Wunderground v.1.15,2013-02-26 05:33:00,
2013-02-25 21:38:00,37.9,35.5,30.35,East,96,0.0,6.0,91,0.00,,,0.42,Wunderground v.1.15,2013-02-26 05:38:00,
2013-02-25 21:44:00,37.8,35.4,30.35,East,96,0.0,6.0,91,0.00,,,0.42,Wunderground v.1.15,2013-02-26 05:44:00,
2013-02-25 21:49:00,37.7,35.3,30.35,East,96,0.0,6.0,91,0.00,,,0.42,Wunderground v.1.15,2013-02-26 05:49:00,
2013-02-25 21:54:00,37.6,35.2,30.35,East,96,0.0,6.0,91,0.00,,,0.42,Wunderground v.1.15,2013-02-26 05:54:00,
2013-02-25 22:00:00,37.4,35.0,30.35,East,96,0.0,6.0,91,0.00,,,0.42,Wunderground v.1.15,2013-02-26 06:00:00,
2013-02-25 22:05:00,37.2,34.8,30.35,East,96,0.0,6.0,91,0.00,,,0.42,Wunderground v.1.15,2013-02-26 06:05:00,
2013-02-25 22:11:00,37.0,34.9,30.36,East,96,0.0,6.0,92,0.00,,,0.42,Wunderground v.1.15,2013-02-26 06:11:00,
2013-02-25 22:16:00,36.9,34.8,30.36,East,96,1.0,6.0,92,0.00,,,0.42,Wunderground v.1.15,2013-02-26 06:16:00,
2013-02-25 22:21:00,36.7,34.6,30.36,East,96,1.0,6.0,92,0.00,,,0.42,Wunderground v.1.15,2013-02-26 06:21:00,
2013-02-25 22:26:00,36.5,34.4,30.36,East,96,1.0,6.0,92,0.00,,,0.42,Wunderground v.1.15,2013-02-26 06:26:00,
2013-02-25 22:32:00,36.6,34.8,30.36,East,94,1.0,6.0,93,0.00,,,0.42,Wunderground v.1.15,2013-02-26 06:32:00,
2013-02-25 22:37:00,36.8,35.0,30.36,East,94,1.0,6.0,93,0.00,,,0.42,Wunderground v.1.15,2013-02-26 06:37:00,
2013-02-25 22:42:00,37.0,35.2,30.36,East,92,2.0,6.0,93,0.00,,,0.42,Wunderground v.1.15,2013-02-26 06:42:00,
2013-02-25 22:48:00,37.4,35.6,30.36,East,87,2.0,6.0,93,0.00,,,0.42,Wunderground v.1.15,2013-02-26 06:48:00,
2013-02-25 22:53:00,37.5,35.7,30.36,East,79,2.0,6.0,93,0.00,,,0.42,Wunderground v.1.15,2013-02-26 06:53:00,
2013-02-25 22:59:00,37.5,35.4,30.36,East,88,2.0,6.0,92,0.00,,,0.42,Wunderground v.1.15,2013-02-26 06:59:00,
2013-02-25 23:04:00,37.4,35.3,30.36,East,88,1.0,6.0,92,0.00,,,0.42,Wunderground v.1.15,2013-02-26 07:04:00,
2013-02-25 23:09:00,37.3,35.2,30.37,East,88,0.0,6.0,92,0.00,,,0.42,Wunderground v.1.15,2013-02-26 07:09:00,
2013-02-25 23:14:00,37.2,35.1,30.37,East,88,0.0,6.0,92,0.00,,,0.42,Wunderground v.1.15,2013-02-26 07:14:00,
2013-02-25 23:20:00,37.0,34.9,30.37,East,88,0.0,6.0,92,0.00,,,0.42,Wunderground v.1.15,2013-02-26 07:20:00,
2013-02-25 23:25:00,36.9,34.8,30.37,East,88,0.0,6.0,92,0.00,,,0.42,Wunderground v.1.15,2013-02-26 07:25:00,
2013-02-25 23:30:00,36.9,34.8,30.37,East,88,0.0,6.0,92,0.00,,,0.42,Wunderground v.1.15,2013-02-26 07:30:00,
2013-02-25 23:36:00,37.1,35.3,30.37,East,88,0.0,6.0,93,0.00,,,0.42,Wunderground v.1.15,2013-02-26 07:36:00,
2013-02-25 23:41:00,37.1,35.3,30.37,East,88,0.0,6.0,93,0.00,,,0.42,Wunderground v.1.15,2013-02-26 07:41:00,
2013-02-25 23:46:00,37.2,35.4,30.37,East,88,0.0,6.0,93,0.00,,,0.42,Wunderground v.1.15,2013-02-26 07:46:00,
2013-02-25 23:52:00,37.1,35.3,30.37,East,88,0.0,6.0,93,0.00,,,0.42,Wunderground v.1.15,2013-02-26 07:52:00,
2013-02-25 23:57:00,37.0,35.2,30.37,East,88,0.0,6.0,93,0.00,,,0.00,Wunderground v.1.15,2013-02-26 07:57:00,